createdAt,value
2022-10-20T00:01:17.953Z,13.80
2022-10-20T00:03:46.123Z,14.60
2022-10-20T00:06:17.253Z,9.03
2022-10-20T00:08:46.105Z,9.50
2022-10-20T00:11:16.178Z,16.70
2022-10-20T00:13:45.459Z,9.63
2022-10-20T00:16:13.648Z,10.57
2022-10-20T00:18:41.539Z,12.93
2022-10-20T00:21:10.358Z,9.63
2022-10-20T00:23:39.530Z,9.57
2022-10-20T00:26:09.219Z,13.00
2022-10-20T00:28:36.962Z,15.37
2022-10-20T00:31:05.222Z,12.83
2022-10-20T00:33:33.570Z,11.70
2022-10-20T00:36:01.557Z,10.90
2022-10-20T00:38:29.350Z,12.70
2022-10-20T00:40:59.968Z,9.90
2022-10-20T00:43:42.178Z,14.57
2022-10-20T00:46:10.356Z,12.50
2022-10-20T00:48:38.141Z,14.43
2022-10-20T00:51:06.699Z,10.73
2022-10-20T00:53:35.246Z,11.33
2022-10-20T00:56:04.385Z,10.73
2022-10-20T00:58:32.162Z,12.27
2022-10-20T01:01:01.027Z,15.73
2022-10-20T01:03:31.982Z,14.87
2022-10-20T01:05:59.825Z,15.87
2022-10-20T01:08:27.774Z,12.10
2022-10-20T01:11:05.652Z,12.60
2022-10-20T01:13:40.563Z,14.20
2022-10-20T01:16:13.765Z,15.13
2022-10-20T01:18:48.646Z,11.60
2022-10-20T01:21:28.154Z,13.17
2022-10-20T01:24:11.673Z,13.07
2022-10-20T01:27:21.877Z,11.17
2022-10-20T01:29:54.784Z,11.37
2022-10-20T01:32:25.796Z,12.67
2022-10-20T01:34:59.253Z,13.93
2022-10-20T01:37:47.497Z,16.33
2022-10-20T01:40:21.890Z,15.10
2022-10-20T01:42:52.521Z,13.30
2022-10-20T01:45:22.800Z,9.93
2022-10-20T01:47:51.637Z,12.23
2022-10-20T01:50:20.317Z,14.00
2022-10-20T01:52:48.370Z,12.30
2022-10-20T01:55:18.174Z,11.03
2022-10-20T01:57:54.770Z,11.63
2022-10-20T02:00:24.318Z,12.87
2022-10-20T02:03:19.836Z,13.97
2022-10-20T02:05:54.455Z,10.20
2022-10-20T02:08:27.558Z,11.80
2022-10-20T02:11:01.470Z,9.97
2022-10-20T02:13:30.649Z,11.57
2022-10-20T02:16:02.452Z,9.60
2022-10-20T02:18:32.541Z,11.80
2022-10-20T02:21:02.142Z,12.83
2022-10-20T02:23:35.041Z,12.17
2022-10-20T02:26:07.099Z,10.43
2022-10-20T02:28:36.128Z,9.97
2022-10-20T02:31:06.077Z,11.43
2022-10-20T02:33:35.104Z,9.97
2022-10-20T02:36:05.972Z,11.97
2022-10-20T02:38:33.735Z,10.20
2022-10-20T02:41:01.525Z,11.33
2022-10-20T02:43:29.229Z,9.97
2022-10-20T02:45:56.988Z,11.60
2022-10-20T02:48:26.100Z,11.47
2022-10-20T02:50:53.837Z,11.47
2022-10-20T02:53:21.559Z,11.73
2022-10-20T02:55:49.302Z,12.00
2022-10-20T02:58:17.019Z,13.13
2022-10-20T03:00:44.760Z,11.10
2022-10-20T03:03:12.466Z,13.43
2022-10-20T03:05:44.451Z,12.97
2022-10-20T03:08:12.241Z,11.60
2022-10-20T03:10:41.557Z,12.60
2022-10-20T03:13:09.934Z,12.10
2022-10-20T03:15:37.944Z,13.47
2022-10-20T03:18:05.740Z,10.53
2022-10-20T03:20:34.612Z,10.23
2022-10-20T03:23:08.265Z,12.57
2022-10-20T03:25:36.157Z,9.63
2022-10-20T03:28:03.925Z,11.87
2022-10-20T03:30:31.702Z,10.13
2022-10-20T03:32:59.447Z,11.07
2022-10-20T03:35:27.263Z,11.17
2022-10-20T03:37:55.019Z,8.73
2022-10-20T03:40:24.127Z,12.10
2022-10-20T03:42:52.082Z,13.17
2022-10-20T03:45:19.825Z,13.73
2022-10-20T03:47:47.547Z,11.70
2022-10-20T03:50:15.289Z,12.13
2022-10-20T03:52:43.093Z,13.20
2022-10-20T03:55:11.075Z,12.87
2022-10-20T03:57:40.197Z,9.37
2022-10-20T04:00:08.853Z,11.90
2022-10-20T04:02:43.982Z,10.97
2022-10-20T04:05:12.489Z,11.20
2022-10-20T04:07:40.238Z,9.20
2022-10-20T04:10:08.923Z,9.40
2022-10-20T04:12:37.269Z,11.90
2022-10-20T04:15:07.862Z,10.17
2022-10-20T04:17:36.840Z,13.47
2022-10-20T04:20:05.414Z,9.37
2022-10-20T04:22:33.435Z,10.50
2022-10-20T04:25:01.445Z,10.87
2022-10-20T04:27:29.286Z,9.80
2022-10-20T04:29:57.050Z,12.83
2022-10-20T04:32:26.138Z,9.77
2022-10-20T04:34:53.944Z,10.73
2022-10-20T04:37:21.675Z,9.77
2022-10-20T04:39:51.021Z,11.47
2022-10-20T04:42:18.946Z,9.70
2022-10-20T04:44:46.720Z,10.40
2022-10-20T04:47:14.561Z,10.67
2022-10-20T04:49:44.116Z,10.13
2022-10-20T04:52:12.045Z,11.43
2022-10-20T04:54:39.788Z,12.37
2022-10-20T04:57:07.512Z,11.70
2022-10-20T04:59:35.203Z,10.90
2022-10-20T05:02:02.975Z,11.17
2022-10-20T05:04:31.009Z,10.23
2022-10-20T05:07:00.131Z,11.63
2022-10-20T05:09:27.884Z,12.30
2022-10-20T05:11:55.720Z,10.77
2022-10-20T05:14:23.855Z,13.50
2022-10-20T05:16:51.674Z,9.80
2022-10-20T05:19:19.683Z,11.37
2022-10-20T05:21:47.551Z,11.37
2022-10-20T05:24:21.337Z,12.80
2022-10-20T05:26:50.614Z,10.10
2022-10-20T05:29:18.314Z,11.63
2022-10-20T05:31:46.109Z,13.00
2022-10-20T05:34:13.860Z,11.73
2022-10-20T05:36:41.573Z,13.70
2022-10-20T05:39:09.381Z,12.37
2022-10-20T05:41:39.182Z,11.53
2022-10-20T05:44:09.645Z,12.23
2022-10-20T05:46:41.260Z,10.30
2022-10-20T05:49:13.990Z,15.00
2022-10-20T05:51:41.876Z,11.27
2022-10-20T05:54:12.270Z,12.37
2022-10-20T05:56:42.313Z,12.33
2022-10-20T05:59:10.922Z,12.70
2022-10-20T06:01:48.190Z,14.23
2022-10-20T06:04:17.931Z,9.73
2022-10-20T06:06:45.806Z,14.30
2022-10-20T06:09:13.742Z,15.27
2022-10-20T06:11:42.854Z,12.10
2022-10-20T06:14:11.082Z,19.23
2022-10-20T06:16:38.913Z,12.07
2022-10-20T06:19:07.255Z,18.97
2022-10-20T06:21:36.304Z,13.87
2022-10-20T06:24:06.778Z,14.00
2022-10-20T06:26:36.567Z,9.27
2022-10-20T06:29:07.406Z,9.73
2022-10-20T06:31:38.812Z,12.80
2022-10-20T06:34:07.222Z,11.87
2022-10-20T06:36:35.887Z,10.30
2022-10-20T06:39:05.129Z,11.53
2022-10-20T06:41:33.485Z,11.80
2022-10-20T06:44:01.201Z,11.70
2022-10-20T06:46:31.866Z,10.57
2022-10-20T06:49:01.485Z,12.00
2022-10-20T06:51:29.352Z,9.50
2022-10-20T06:53:57.355Z,9.03
2022-10-20T06:56:26.990Z,10.33
2022-10-20T06:58:55.937Z,8.80
2022-10-20T07:01:25.253Z,11.30
2022-10-20T07:03:56.446Z,11.67
2022-10-20T07:06:25.343Z,12.13
2022-10-20T07:08:54.078Z,11.70
2022-10-20T07:11:23.593Z,10.40
2022-10-20T07:13:51.438Z,7.47
2022-10-20T07:16:21.087Z,7.23
2022-10-20T07:18:49.015Z,9.57
2022-10-20T07:21:19.397Z,8.25
2022-10-20T07:23:48.474Z,9.80
2022-10-20T07:26:18.688Z,9.20
2022-10-20T07:28:50.901Z,10.07
2022-10-20T07:31:24.225Z,9.68
2022-10-20T07:34:13.181Z,8.18
2022-10-20T07:36:43.062Z,29.95
2022-10-20T07:39:12.934Z,15.73
2022-10-20T07:41:43.890Z,14.98
2022-10-20T07:44:11.653Z,9.38
2022-10-20T07:46:39.513Z,7.20
2022-10-20T07:49:31.233Z,5.72
2022-10-20T07:51:56.395Z,8.10
2022-10-20T07:54:24.166Z,8.27
2022-10-20T07:56:52.139Z,5.68
2022-10-20T07:59:20.087Z,7.45
2022-10-20T08:01:48.024Z,5.40
2022-10-20T08:04:15.807Z,5.50
2022-10-20T08:06:43.582Z,12.13
2022-10-20T08:09:12.785Z,6.55
2022-10-20T08:11:40.592Z,6.97
2022-10-20T08:14:08.366Z,5.07
2022-10-20T08:16:49.587Z,6.53
2022-10-20T08:22:02.046Z,5.85
2022-10-20T08:24:31.754Z,5.03
2022-10-20T08:27:00.160Z,5.53
2022-10-20T08:29:27.948Z,5.57
2022-10-20T08:31:55.729Z,7.35
2022-10-20T08:34:23.481Z,6.05
2022-10-20T08:36:51.307Z,7.03
2022-10-20T08:39:19.720Z,7.85
2022-10-20T08:44:39.727Z,7.95
2022-10-20T08:47:28.004Z,6.15
2022-10-20T08:49:59.382Z,7.22
2022-10-20T08:52:27.506Z,8.00
2022-10-20T08:54:56.503Z,10.15
2022-10-20T08:57:27.446Z,5.13
2022-10-20T08:59:56.425Z,4.40
2022-10-20T09:02:24.157Z,8.10
2022-10-20T09:04:54.521Z,6.47
2022-10-20T09:07:26.664Z,6.88
2022-10-20T09:09:56.156Z,7.53
2022-10-20T09:12:30.201Z,7.35
2022-10-20T09:14:59.020Z,6.45
2022-10-20T09:17:26.818Z,10.07
2022-10-20T09:19:57.403Z,6.40
2022-10-20T09:22:26.232Z,7.93
2022-10-20T09:24:56.545Z,5.90
2022-10-20T09:27:32.550Z,4.40
2022-10-20T09:30:14.678Z,5.45
2022-10-20T09:32:47.327Z,4.60
2022-10-20T09:35:28.091Z,9.25
2022-10-20T09:38:05.088Z,6.10
2022-10-20T09:40:32.985Z,7.95
2022-10-20T09:43:04.204Z,5.15
2022-10-20T09:45:33.051Z,7.43
2022-10-20T09:48:04.701Z,6.30
2022-10-20T09:50:35.092Z,8.15
2022-10-20T09:53:05.966Z,7.22
2022-10-20T09:55:35.446Z,5.57
2022-10-20T09:58:06.187Z,5.50
2022-10-20T10:00:37.828Z,6.45
2022-10-20T10:03:22.805Z,5.68
2022-10-20T10:05:52.054Z,6.03
2022-10-20T10:08:20.871Z,6.47
2022-10-20T10:10:59.830Z,5.97
2022-10-20T10:13:30.734Z,11.82
2022-10-20T10:16:04.697Z,8.27
2022-10-20T10:18:32.608Z,6.17
2022-10-20T10:21:03.055Z,5.80
2022-10-20T10:23:33.295Z,7.72
2022-10-20T10:26:02.267Z,8.50
2022-10-20T10:28:35.253Z,6.72
2022-10-20T10:31:25.203Z,7.30
2022-10-20T10:33:57.178Z,7.75
2022-10-20T10:36:34.345Z,7.18
2022-10-20T10:39:03.237Z,7.15
2022-10-20T10:41:42.675Z,6.70
2022-10-20T10:44:16.902Z,8.10
2022-10-20T10:46:56.724Z,6.27
2022-10-20T10:49:36.631Z,8.38
2022-10-20T10:52:10.351Z,6.40
2022-10-20T10:54:46.424Z,7.68
2022-10-20T10:57:17.151Z,8.23
2022-10-20T10:59:49.423Z,9.10
2022-10-20T11:02:46.874Z,8.82
2022-10-20T11:05:47.952Z,6.85
2022-10-20T11:08:25.649Z,7.10
2022-10-20T11:11:01.169Z,8.55
2022-10-20T11:13:33.862Z,6.70
2022-10-20T11:16:13.075Z,7.18
2022-10-20T11:18:53.259Z,10.73
2022-10-20T11:21:27.309Z,7.13
2022-10-20T11:24:05.399Z,7.53
2022-10-20T11:26:34.932Z,9.15
2022-10-20T11:29:05.458Z,8.63
2022-10-20T11:31:37.385Z,10.52
2022-10-20T11:34:08.168Z,8.73
2022-10-20T11:36:39.743Z,6.68
2022-10-20T11:39:13.817Z,6.87
2022-10-20T11:41:45.983Z,10.07
2022-10-20T11:44:15.949Z,12.40
2022-10-20T11:46:48.377Z,9.13
2022-10-20T11:49:16.191Z,7.90
2022-10-20T11:52:08.495Z,7.78
2022-10-20T11:54:45.361Z,12.00
2022-10-20T11:57:21.586Z,10.48
2022-10-20T12:00:09.972Z,10.35
2022-10-20T12:03:19.515Z,7.88
2022-10-20T12:06:11.641Z,11.85
2022-10-20T12:08:49.960Z,7.85
2022-10-20T12:11:21.285Z,10.80
2022-10-20T12:13:56.425Z,9.73
2022-10-20T12:17:12.293Z,9.63
2022-10-20T12:19:40.201Z,8.70
2022-10-20T12:22:39.692Z,12.18
2022-10-20T12:25:38.841Z,9.10
2022-10-20T12:28:40.140Z,11.68
2022-10-20T12:31:08.077Z,8.68
2022-10-20T12:33:41.355Z,13.15
2022-10-20T12:36:27.548Z,11.15
2022-10-20T12:39:11.123Z,8.13
2022-10-20T12:41:43.322Z,9.82
2022-10-20T12:44:16.914Z,9.85
2022-10-20T12:46:53.517Z,9.93
2022-10-20T12:49:24.986Z,9.52
2022-10-20T12:51:54.685Z,10.93
2022-10-20T12:54:26.728Z,10.52
2022-10-20T12:56:59.456Z,9.23
2022-10-20T12:59:46.402Z,9.70
2022-10-20T13:02:44.643Z,10.95
2022-10-20T13:05:42.723Z,12.75
2022-10-20T13:08:32.458Z,9.90
2022-10-20T13:11:41.808Z,12.07
2022-10-20T13:14:26.214Z,11.95
2022-10-20T13:17:02.415Z,11.43
2022-10-20T13:19:36.333Z,11.60
2022-10-20T13:22:46.529Z,10.45
2022-10-20T13:25:18.952Z,10.70
2022-10-20T13:27:50.552Z,13.93
2022-10-20T13:30:21.815Z,12.20
2022-10-20T13:33:18.082Z,12.45
2022-10-20T13:35:49.997Z,11.93
2022-10-20T13:38:20.856Z,10.25
2022-10-20T13:40:54.510Z,12.10
2022-10-20T13:43:32.124Z,12.55
2022-10-20T13:46:27.626Z,11.77
2022-10-20T13:49:09.521Z,16.17
2022-10-20T13:51:42.231Z,13.75
2022-10-20T13:54:20.236Z,13.18
2022-10-20T13:56:48.783Z,17.85
2022-10-20T13:59:25.874Z,14.07
2022-10-20T14:01:56.090Z,25.45
2022-10-20T14:04:26.666Z,17.00
2022-10-20T14:06:54.506Z,12.23
2022-10-20T14:09:24.147Z,15.35
2022-10-20T14:11:54.319Z,13.68
2022-10-20T14:14:25.229Z,14.48
2022-10-20T14:16:55.398Z,13.73
2022-10-20T14:19:27.695Z,14.45
2022-10-20T14:21:57.290Z,17.83
2022-10-20T14:24:29.881Z,16.67
2022-10-20T14:29:34.992Z,15.70
2022-10-20T14:32:02.925Z,14.85
2022-10-20T14:34:32.513Z,11.32
2022-10-20T14:37:00.622Z,11.65
2022-10-20T14:39:34.492Z,10.77
2022-10-20T14:42:04.631Z,9.65
2022-10-20T14:44:33.933Z,13.18
2022-10-20T14:47:05.253Z,12.30
2022-10-20T14:49:35.106Z,11.32
2022-10-20T14:52:04.348Z,14.77
2022-10-20T14:54:36.229Z,9.13
2022-10-20T14:57:30.053Z,11.63
2022-10-20T15:00:03.561Z,9.18
2022-10-20T15:02:32.567Z,10.98
2022-10-20T15:05:21.701Z,13.27
2022-10-20T15:07:49.519Z,10.65
2022-10-20T15:10:19.758Z,14.38
2022-10-20T15:12:49.197Z,12.25
2022-10-20T15:15:23.878Z,10.02
2022-10-20T15:17:53.041Z,13.70
2022-10-20T15:20:38.829Z,11.77
2022-10-20T15:23:09.679Z,10.32
2022-10-20T15:25:43.530Z,12.60
2022-10-20T15:28:33.429Z,11.25
2022-10-20T15:31:04.277Z,15.15
2022-10-20T15:33:32.222Z,16.98
2022-10-20T15:36:01.532Z,12.18
2022-10-20T15:38:29.621Z,13.25
2022-10-20T15:40:57.416Z,11.18
2022-10-20T15:43:26.822Z,11.43
2022-10-20T15:45:56.097Z,14.27
2022-10-20T15:48:26.172Z,14.85
2022-10-20T15:50:54.598Z,13.93
2022-10-20T15:53:22.380Z,11.13
2022-10-20T15:55:50.121Z,14.30
2022-10-20T15:58:17.906Z,12.88
2022-10-20T16:00:45.702Z,11.25
2022-10-20T16:03:17.671Z,17.98
2022-10-20T16:05:47.261Z,12.95
2022-10-20T16:10:43.592Z,15.27
2022-10-20T16:13:12.087Z,14.43
2022-10-20T16:15:39.799Z,13.48
2022-10-20T16:18:09.811Z,11.30
2022-10-20T16:20:38.071Z,14.65
2022-10-20T16:23:07.322Z,11.73
2022-10-20T16:25:35.084Z,11.95
2022-10-20T16:28:03.040Z,12.02
2022-10-20T16:30:30.859Z,11.05
2022-10-20T16:32:58.659Z,12.00
2022-10-20T16:35:26.500Z,14.93
2022-10-20T16:37:54.354Z,12.02
2022-10-20T16:40:23.462Z,11.23
2022-10-20T16:42:51.213Z,10.98
2022-10-20T16:45:19.356Z,12.73
2022-10-20T16:47:47.159Z,17.10
2022-10-20T16:50:14.972Z,12.70
2022-10-20T16:52:42.713Z,13.18
2022-10-20T16:55:10.970Z,14.05
2022-10-20T16:57:40.503Z,13.90
2022-10-20T17:00:09.836Z,9.50
2022-10-20T17:02:38.565Z,13.90
2022-10-20T17:05:09.333Z,15.00
2022-10-20T17:07:38.149Z,12.95
2022-10-20T17:10:07.310Z,15.18
2022-10-20T17:12:35.074Z,12.90
2022-10-20T17:15:04.766Z,12.98
2022-10-20T17:17:32.512Z,13.43
2022-10-20T17:20:00.358Z,14.32
2022-10-20T17:22:28.134Z,12.98
2022-10-20T17:24:55.894Z,14.25
2022-10-20T17:27:23.666Z,16.30
2022-10-20T17:29:51.413Z,15.05
2022-10-20T17:32:20.542Z,14.75
2022-10-20T17:34:48.330Z,17.23
2022-10-20T17:37:16.070Z,12.35
2022-10-20T17:39:43.789Z,13.27
2022-10-20T17:42:11.556Z,17.95
2022-10-20T17:44:39.278Z,15.63
2022-10-20T17:47:07.051Z,11.13
2022-10-20T17:49:36.173Z,12.25
2022-10-20T17:52:03.992Z,11.73
2022-10-20T17:54:31.819Z,10.65
2022-10-20T17:56:59.572Z,13.30
2022-10-20T17:59:27.490Z,15.43
2022-10-20T18:01:55.847Z,14.85
2022-10-20T18:04:23.665Z,12.93
2022-10-20T18:06:52.903Z,12.52
2022-10-20T18:09:20.909Z,15.93
2022-10-20T18:11:51.135Z,11.93
2022-10-20T18:14:19.354Z,12.45
2022-10-20T18:16:47.681Z,7.68
2022-10-20T18:19:17.019Z,10.93
2022-10-20T18:21:44.766Z,12.77
2022-10-20T18:24:15.901Z,15.80
2022-10-20T18:26:44.030Z,11.52
2022-10-20T18:29:12.492Z,10.90
2022-10-20T18:31:42.280Z,13.40
2022-10-20T18:34:12.527Z,10.57
2022-10-20T18:36:43.614Z,13.90
2022-10-20T18:39:15.320Z,10.77
2022-10-20T18:41:45.444Z,14.05
2022-10-20T18:44:15.170Z,16.33
2022-10-20T18:46:43.367Z,14.25
2022-10-20T18:49:13.542Z,12.57
2022-10-20T18:51:41.695Z,14.35
2022-10-20T18:54:09.930Z,10.25
2022-10-20T18:56:38.994Z,11.38
2022-10-20T18:59:08.742Z,9.02
2022-10-20T19:01:38.446Z,12.23
2022-10-20T19:04:06.724Z,13.63
2022-10-20T19:06:36.573Z,13.55
2022-10-20T19:09:07.750Z,9.25
2022-10-20T19:11:38.027Z,10.45
2022-10-20T19:14:07.573Z,12.50
2022-10-20T19:16:35.632Z,12.77
2022-10-20T19:19:06.368Z,10.20
2022-10-20T19:21:34.727Z,12.15
2022-10-20T19:24:05.527Z,13.77
2022-10-20T19:26:34.612Z,9.00
2022-10-20T19:29:05.690Z,9.93
2022-10-20T19:31:36.723Z,9.27
2022-10-20T19:34:06.897Z,11.57
2022-10-20T19:36:34.829Z,7.80
2022-10-20T19:39:02.956Z,7.60
2022-10-20T19:41:30.754Z,9.95
2022-10-20T19:43:58.614Z,9.30
2022-10-20T19:46:26.365Z,8.88
2022-10-20T19:48:55.595Z,7.82
2022-10-20T19:51:23.433Z,10.50
2022-10-20T19:53:51.205Z,12.52
2022-10-20T19:56:19.118Z,9.50
2022-10-20T19:58:48.384Z,9.70
2022-10-20T20:01:17.124Z,11.43
2022-10-20T20:03:45.189Z,8.73
2022-10-20T20:06:16.555Z,13.82
2022-10-20T20:08:45.671Z,9.32
2022-10-20T20:11:23.458Z,11.18
2022-10-20T20:13:51.686Z,9.23
2022-10-20T20:16:19.539Z,13.95
2022-10-20T20:18:47.603Z,15.68
2022-10-20T20:21:17.758Z,6.90
2022-10-20T20:24:00.693Z,6.72
2022-10-20T20:26:29.167Z,10.25
2022-10-20T20:28:57.673Z,6.07
2022-10-20T20:31:25.814Z,9.15
2022-10-20T20:33:54.132Z,8.18
2022-10-20T20:36:23.453Z,10.30
2022-10-20T20:38:53.684Z,7.45
2022-10-20T20:41:24.534Z,8.98
2022-10-20T20:43:52.285Z,8.68
2022-10-20T20:46:22.371Z,7.80
2022-10-20T20:48:50.266Z,9.35
2022-10-20T20:51:18.265Z,5.72
2022-10-20T20:53:47.879Z,5.43
2022-10-20T20:56:17.688Z,6.00
2022-10-20T20:58:47.607Z,7.55
2022-10-20T21:01:16.929Z,6.93
2022-10-20T21:03:45.021Z,6.97
2022-10-20T21:06:14.077Z,5.65
2022-10-20T21:08:43.040Z,5.47
2022-10-20T21:11:13.905Z,7.20
2022-10-20T21:13:42.845Z,8.25
2022-10-20T21:16:12.281Z,8.93
2022-10-20T21:18:40.474Z,7.97
2022-10-20T21:23:42.846Z,9.52
2022-10-20T21:26:14.035Z,7.13
2022-10-20T21:28:42.024Z,8.18
2022-10-20T21:31:12.857Z,7.20
2022-10-20T21:33:40.889Z,5.53
2022-10-20T21:36:10.705Z,9.05
2022-10-20T21:38:39.537Z,7.40
2022-10-20T21:41:08.955Z,7.35
2022-10-20T21:43:39.652Z,7.47
2022-10-20T21:46:14.877Z,6.22
2022-10-20T21:48:43.430Z,6.32
2022-10-20T21:51:12.668Z,11.30
2022-10-20T21:53:40.778Z,7.68
2022-10-20T21:56:08.986Z,9.43
2022-10-20T21:58:38.532Z,5.70
2022-10-20T22:01:10.988Z,5.97
2022-10-20T22:03:39.450Z,7.35
2022-10-20T22:06:07.522Z,8.45
2022-10-20T22:08:36.354Z,10.50
2022-10-20T22:11:05.545Z,8.88
2022-10-20T22:13:33.708Z,8.40
2022-10-20T22:16:03.285Z,8.90
2022-10-20T22:18:31.191Z,11.55
2022-10-20T22:21:03.374Z,8.98
2022-10-20T22:23:31.131Z,10.88
2022-10-20T22:25:58.900Z,8.18
2022-10-20T22:28:26.721Z,11.65
2022-10-20T22:30:54.601Z,8.68
2022-10-20T22:33:23.870Z,6.57
2022-10-20T22:35:51.654Z,5.88
2022-10-20T22:38:19.515Z,12.27
2022-10-20T22:40:47.297Z,6.47
2022-10-20T22:43:15.211Z,7.75
2022-10-20T22:45:43.004Z,11.10
2022-10-20T22:48:10.781Z,12.18
2022-10-20T22:50:39.890Z,10.68
2022-10-20T22:53:07.626Z,7.63
2022-10-20T22:55:35.371Z,8.18
2022-10-20T22:58:03.125Z,6.65
2022-10-20T23:00:30.908Z,9.20
2022-10-20T23:02:58.910Z,11.20
2022-10-20T23:05:26.773Z,10.82
2022-10-20T23:07:55.857Z,9.00
2022-10-20T23:10:23.611Z,10.98
2022-10-20T23:12:51.397Z,9.02
2022-10-20T23:15:19.304Z,8.35
2022-10-20T23:17:47.049Z,10.63
2022-10-20T23:20:14.921Z,11.95
2022-10-20T23:22:42.628Z,9.15
2022-10-20T23:25:11.856Z,11.15
2022-10-20T23:27:39.943Z,9.43
2022-10-20T23:30:09.141Z,12.00
2022-10-20T23:32:37.193Z,11.65
2022-10-20T23:35:05.357Z,13.82
2022-10-20T23:37:33.090Z,11.30
2022-10-20T23:40:00.886Z,11.27
2022-10-20T23:42:29.974Z,15.93
2022-10-20T23:44:57.737Z,13.57
2022-10-20T23:47:25.631Z,18.95
2022-10-20T23:49:53.375Z,15.73
2022-10-20T23:52:21.123Z,13.15
2022-10-20T23:54:48.958Z,14.48
2022-10-20T23:57:16.726Z,17.40
2022-10-20T23:59:45.834Z,17.48
